Time;durP1;ratioP1;P1;durP2;ratioP2;P2;SDS_P1;SDS_P2;PMS_P1;PMS_P2;Temp;Humidity;BMP_temperature;BMP_pressure;BME280_temperature;BME280_humidity;BME280_pressure;Samples;Min_cycle;Max_cycle;Signal;HPM_P1;HPM_P2
2021/01/07 00:02:11;;;;;;;8.80;4.13;;;13.40;99.90;;;;;;5033775;28;20077;-55
2021/01/07 00:04:39;;;;;;;9.00;3.20;;;13.30;99.90;;;;;;5030840;28;20415;-54
2021/01/07 00:07:06;;;;;;;22.65;4.75;;;13.30;99.90;;;;;;5003999;28;20069;-55
2021/01/07 00:09:33;;;;;;;15.35;3.80;;;13.30;99.90;;;;;;5022408;28;20125;-54
2021/01/07 00:12:00;;;;;;;8.57;4.03;;;13.30;99.90;;;;;;5029318;28;20495;-56
2021/01/07 00:14:31;;;;;;;13.10;5.07;;;13.30;99.90;;;;;;5021343;28;20041;-55
2021/01/07 00:16:58;;;;;;;8.90;4.20;;;13.20;99.90;;;;;;4994768;28;20052;-56
2021/01/07 00:19:28;;;;;;;11.43;3.97;;;13.30;99.90;;;;;;4998698;28;20096;-56
2021/01/07 00:21:55;;;;;;;11.38;4.22;;;13.30;99.90;;;;;;4996026;28;20038;-55
2021/01/07 00:24:22;;;;;;;8.68;3.58;;;13.30;99.90;;;;;;5022587;28;20060;-56
2021/01/07 00:26:52;;;;;;;12.20;3.58;;;13.40;99.90;;;;;;5006808;28;20050;-54
2021/01/07 00:29:19;;;;;;;13.02;4.00;;;13.40;99.90;;;;;;5024741;28;20057;-56
2021/01/07 00:31:46;;;;;;;14.43;6.07;;;13.40;99.90;;;;;;5029617;28;20128;-56
2021/01/07 00:34:14;;;;;;;9.00;3.20;;;13.40;99.90;;;;;;5021871;28;20053;-60
2021/01/07 00:36:41;;;;;;;12.93;3.85;;;13.40;99.90;;;;;;5008828;28;20463;-54
2021/01/07 00:39:08;;;;;;;12.13;4.40;;;13.40;99.90;;;;;;5015832;28;20053;-56
2021/01/07 00:41:35;;;;;;;6.20;2.60;;;13.50;99.90;;;;;;5036303;28;20050;-56
2021/01/07 00:44:03;;;;;;;6.38;2.60;;;13.40;99.90;;;;;;5018326;28;20053;-56
2021/01/07 00:46:30;;;;;;;8.60;3.08;;;13.50;99.90;;;;;;5036254;28;20168;-55
2021/01/07 00:49:00;;;;;;;19.58;3.50;;;13.50;99.90;;;;;;5035675;28;20087;-55
2021/01/07 00:51:32;;;;;;;9.43;3.50;;;13.50;99.90;;;;;;5035212;28;20119;-52
2021/01/07 00:54:03;;;;;;;7.80;3.47;;;13.50;99.90;;;;;;5034929;28;20213;-55
2021/01/07 00:56:35;;;;;;;6.70;2.85;;;13.50;99.90;;;;;;5018244;28;20126;-55
2021/01/07 00:59:05;;;;;;;11.00;2.95;;;13.60;99.90;;;;;;5035826;28;20038;-56
2021/01/07 01:01:41;;;;;;;8.38;3.50;;;13.60;99.90;;;;;;5026398;28;20491;-55
2021/01/07 01:04:10;;;;;;;9.32;4.00;;;13.60;99.90;;;;;;5033825;28;20128;-54
2021/01/07 01:06:38;;;;;;;14.70;2.75;;;13.60;99.90;;;;;;5033134;28;20414;-54
2021/01/07 01:09:06;;;;;;;9.73;3.53;;;13.60;99.90;;;;;;5031845;28;20120;-57
2021/01/07 01:11:47;;;;;;;13.27;3.55;;;13.50;99.90;;;;;;5027417;28;20049;-57
2021/01/07 01:14:16;;;;;;;10.93;3.10;;;13.50;99.90;;;;;;5035263;28;20124;-53
2021/01/07 01:16:45;;;;;;;8.48;3.05;;;13.40;99.90;;;;;;5035994;28;20052;-55
2021/01/07 01:19:14;;;;;;;7.72;3.08;;;13.40;99.90;;;;;;5034214;28;20475;-55
2021/01/07 01:21:41;;;;;;;6.90;2.53;;;13.40;99.90;;;;;;5034612;28;20057;-55
2021/01/07 01:24:11;;;;;;;6.43;3.03;;;13.40;99.90;;;;;;5035526;28;20057;-53
2021/01/07 01:26:38;;;;;;;19.95;4.00;;;13.40;99.90;;;;;;5035550;28;20080;-55
2021/01/07 01:29:06;;;;;;;14.73;3.75;;;13.50;99.90;;;;;;5035058;28;20060;-56
2021/01/07 01:31:40;;;;;;;8.07;2.88;;;13.50;99.90;;;;;;5027071;28;20084;-53
2021/01/07 01:34:08;;;;;;;7.82;2.83;;;13.40;99.90;;;;;;5033731;28;20049;-55
2021/01/07 01:36:35;;;;;;;9.93;3.90;;;13.40;99.90;;;;;;5035265;28;20053;-55
2021/01/07 01:39:02;;;;;;;5.97;3.17;;;13.40;99.90;;;;;;5034828;28;20048;-56
2021/01/07 01:41:29;;;;;;;8.88;4.03;;;13.50;99.90;;;;;;5026376;28;20136;-54
2021/01/07 01:43:57;;;;;;;11.05;3.78;;;13.50;99.90;;;;;;5030398;28;20048;-54
2021/01/07 01:46:24;;;;;;;9.57;3.17;;;13.50;99.90;;;;;;5023889;28;20056;-56
2021/01/07 01:48:51;;;;;;;12.35;2.72;;;13.50;99.90;;;;;;5018611;28;20053;-55
2021/01/07 01:51:19;;;;;;;13.40;4.47;;;13.50;99.90;;;;;;5026237;28;20068;-55
2021/01/07 01:53:47;;;;;;;16.35;4.63;;;13.50;99.90;;;;;;5031591;28;20172;-56
2021/01/07 01:56:15;;;;;;;16.45;4.65;;;13.50;99.90;;;;;;5023783;28;20050;-52
2021/01/07 01:58:42;;;;;;;8.40;3.03;;;13.50;99.90;;;;;;5017191;28;20546;-53
2021/01/07 02:01:09;;;;;;;7.97;2.85;;;13.50;99.90;;;;;;5008602;28;20053;-57
2021/01/07 02:03:40;;;;;;;10.70;3.65;;;13.50;99.90;;;;;;5032615;28;20049;-55
2021/01/07 02:06:13;;;;;;;13.52;3.00;;;13.50;99.90;;;;;;5024058;28;20053;-55
2021/01/07 02:08:45;;;;;;;12.45;4.43;;;13.50;99.90;;;;;;5016702;28;20077;-54
2021/01/07 02:11:14;;;;;;;11.50;2.92;;;13.50;99.90;;;;;;5008398;28;20041;-56
2021/01/07 02:13:48;;;;;;;13.68;3.42;;;13.60;99.90;;;;;;5031784;28;20045;-55
2021/01/07 02:16:18;;;;;;;;;;;13.60;99.90;;;;;;5023857;28;20141;-57
2021/01/07 02:18:45;;;;;;;8.30;3.65;;;13.60;99.90;;;;;;4998828;28;19925;-52
2021/01/07 02:21:13;;;;;;;11.25;3.72;;;13.60;99.90;;;;;;5025535;28;20060;-53
2021/01/07 02:23:53;;;;;;;14.68;4.63;;;13.60;99.90;;;;;;5031731;28;20038;-55
2021/01/07 02:26:21;;;;;;;10.27;3.08;;;13.60;99.90;;;;;;5005601;28;20061;-55
2021/01/07 02:28:49;;;;;;;12.32;4.68;;;13.60;99.90;;;;;;5017749;28;20054;-54
2021/01/07 02:31:18;;;;;;;11.43;3.88;;;13.60;99.90;;;;;;5025818;28;20049;-56
2021/01/07 02:33:45;;;;;;;19.58;4.05;;;13.60;99.90;;;;;;5013555;28;20073;-56
2021/01/07 02:36:12;;;;;;;12.15;4.20;;;13.60;99.90;;;;;;5023537;28;20476;-56
2021/01/07 02:38:39;;;;;;;10.63;3.40;;;13.60;99.90;;;;;;5016230;28;20038;-57
2021/01/07 02:41:08;;;;;;;13.90;3.83;;;13.60;99.90;;;;;;5032635;28;20058;-57
2021/01/07 02:43:39;;;;;;;10.40;3.25;;;13.60;99.90;;;;;;5034174;28;20471;-56
2021/01/07 02:46:06;;;;;;;12.30;3.33;;;13.60;99.90;;;;;;5034167;28;20058;-57
2021/01/07 02:48:34;;;;;;;12.25;3.33;;;13.70;99.90;;;;;;5033285;28;20065;-56
2021/01/07 02:51:01;;;;;;;8.90;2.53;;;13.70;99.90;;;;;;5029820;28;20045;-56
2021/01/07 02:53:28;;;;;;;11.65;4.20;;;13.70;99.90;;;;;;5033504;28;20331;-57
2021/01/07 02:55:55;;;;;;;13.82;3.53;;;13.70;99.90;;;;;;5032640;28;20052;-55
2021/01/07 02:58:33;;;;;;;19.95;4.93;;;13.70;99.90;;;;;;5033191;28;20045;-56
2021/01/07 03:01:00;;;;;;;10.25;4.05;;;13.70;99.90;;;;;;5029627;28;20373;-56
2021/01/07 03:03:27;;;;;;;11.35;3.53;;;13.70;99.90;;;;;;5033708;28;20085;-55
2021/01/07 03:05:54;;;;;;;9.68;3.47;;;13.60;99.90;;;;;;5033741;28;20095;-57
2021/01/07 03:08:21;;;;;;;11.27;3.40;;;13.70;99.90;;;;;;5033026;28;20458;-56
2021/01/07 03:10:49;;;;;;;10.77;3.33;;;13.70;99.90;;;;;;5032920;28;20060;-56
2021/01/07 03:13:19;;;;;;;24.40;4.22;;;13.70;99.90;;;;;;5032004;28;20061;-56
2021/01/07 03:15:46;;;;;;;12.73;3.80;;;13.70;99.90;;;;;;5032409;28;20065;-53
2021/01/07 03:18:13;;;;;;;9.18;3.47;;;13.70;99.90;;;;;;5033310;28;20053;-54
2021/01/07 03:20:40;;;;;;;9.20;4.18;;;13.70;99.90;;;;;;5032369;28;20049;-57
2021/01/07 03:23:07;;;;;;;11.77;3.60;;;13.70;99.90;;;;;;5031942;28;20085;-55
2021/01/07 03:25:35;;;;;;;12.10;3.58;;;13.60;99.90;;;;;;5033309;28;20080;-57
2021/01/07 03:28:02;;;;;;;16.45;4.05;;;13.70;99.90;;;;;;5033400;28;20492;-57
2021/01/07 03:30:29;;;;;;;9.32;4.55;;;13.70;99.90;;;;;;5048132;28;20563;-55
2021/01/07 03:32:56;;;;;;;7.75;4.05;;;13.70;99.90;;;;;;5033432;28;20084;-56
2021/01/07 03:35:23;;;;;;;8.45;3.38;;;13.70;99.90;;;;;;5032634;28;20046;-56
2021/01/07 03:37:53;;;;;;;12.25;3.88;;;13.80;99.90;;;;;;5033232;28;20049;-57
2021/01/07 03:40:20;;;;;;;7.75;3.28;;;13.70;99.90;;;;;;5030963;28;20084;-57
2021/01/07 03:42:47;;;;;;;19.02;3.33;;;13.70;99.90;;;;;;5032022;28;20046;-56
2021/01/07 03:45:15;;;;;;;14.10;3.63;;;13.80;99.90;;;;;;5031461;28;20049;-56
2021/01/07 03:47:42;;;;;;;11.95;3.67;;;13.80;99.90;;;;;;5033454;28;20487;-57
2021/01/07 03:50:10;;;;;;;12.32;3.80;;;13.80;99.90;;;;;;5032572;28;20073;-57
2021/01/07 03:52:38;;;;;;;9.07;3.20;;;13.70;99.90;;;;;;5012176;28;20404;-57
2021/01/07 03:55:06;;;;;;;13.00;4.47;;;13.70;99.90;;;;;;5029647;28;20061;-55
2021/01/07 03:57:34;;;;;;;11.98;3.25;;;13.70;99.90;;;;;;5033079;28;20049;-55
2021/01/07 04:00:01;;;;;;;13.13;3.53;;;13.80;99.90;;;;;;5032708;28;20063;-54
2021/01/07 04:02:30;;;;;;;13.55;4.32;;;13.80;99.90;;;;;;5032886;28;20046;-56
2021/01/07 04:04:57;;;;;;;8.65;3.35;;;13.80;99.90;;;;;;5032643;28;20053;-56
2021/01/07 04:07:24;;;;;;;12.20;2.90;;;13.80;99.90;;;;;;5031720;28;20049;-56
2021/01/07 04:09:53;;;;;;;12.05;3.95;;;13.80;99.90;;;;;;5031403;28;20415;-53
2021/01/07 04:12:20;;;;;;;12.85;3.72;;;13.90;99.90;;;;;;5032581;28;20103;-55
2021/01/07 04:14:58;;;;;;;11.25;3.40;;;13.90;99.90;;;;;;5032415;28;20518;-55
2021/01/07 04:17:25;;;;;;;14.50;3.80;;;13.90;99.90;;;;;;5032852;28;20060;-53
2021/01/07 04:19:52;;;;;;;9.38;3.10;;;13.90;99.90;;;;;;5032374;28;20510;-52
2021/01/07 04:22:19;;;;;;;15.45;3.80;;;14.00;99.90;;;;;;5032584;28;20057;-55
2021/01/07 04:24:49;;;;;;;13.65;4.25;;;14.00;99.90;;;;;;5031971;28;20084;-52
2021/01/07 04:27:17;;;;;;;12.90;3.28;;;14.00;99.90;;;;;;5032836;28;20058;-56
2021/01/07 04:29:45;;;;;;;16.98;4.72;;;14.00;99.90;;;;;;5032264;28;20050;-53
2021/01/07 04:32:12;;;;;;;10.18;3.30;;;14.00;99.90;;;;;;5031615;28;20053;-57
2021/01/07 04:34:39;;;;;;;17.52;3.78;;;14.10;99.90;;;;;;5032318;28;20054;-56
2021/01/07 04:37:06;;;;;;;10.15;2.83;;;14.10;99.90;;;;;;5032859;28;20058;-55
2021/01/07 04:39:34;;;;;;;11.00;4.15;;;14.00;99.90;;;;;;5031803;28;20061;-56
2021/01/07 04:42:01;;;;;;;9.70;3.38;;;14.00;99.90;;;;;;5031889;28;20488;-53
2021/01/07 04:44:30;;;;;;;9.23;3.30;;;14.00;99.90;;;;;;5035674;28;20107;-56
2021/01/07 04:46:59;;;;;;;12.68;4.00;;;14.00;99.90;;;;;;5035198;28;20049;-56
2021/01/07 04:49:26;;;;;;;11.95;4.22;;;14.00;99.90;;;;;;5035894;28;20057;-54
2021/01/07 04:51:53;;;;;;;14.77;3.30;;;14.00;99.90;;;;;;5036401;28;20088;-53
2021/01/07 04:54:22;;;;;;;11.05;4.57;;;14.00;99.90;;;;;;5034500;28;20520;-55
2021/01/07 04:56:50;;;;;;;9.45;3.38;;;14.00;99.90;;;;;;5034933;28;20045;-55
2021/01/07 04:59:17;;;;;;;10.73;4.82;;;14.00;99.90;;;;;;5034558;28;20053;-56
2021/01/07 05:01:46;;;;;;;13.48;3.70;;;14.00;99.90;;;;;;5036036;28;20049;-55
2021/01/07 05:04:17;;;;;;;9.10;3.60;;;14.00;99.90;;;;;;5034218;28;20041;-55
2021/01/07 05:06:46;;;;;;;12.57;3.60;;;14.00;99.90;;;;;;5034825;28;20103;-57
2021/01/07 05:09:14;;;;;;;9.73;4.40;;;14.00;99.90;;;;;;5035502;28;20473;-57
2021/01/07 05:11:41;;;;;;;10.25;4.40;;;14.00;99.90;;;;;;5035741;28;20053;-57
2021/01/07 05:14:10;;;;;;;7.43;3.28;;;14.00;99.90;;;;;;5034100;28;20060;-55
2021/01/07 05:16:38;;;;;;;10.55;4.35;;;14.00;99.90;;;;;;5034601;28;20053;-56
2021/01/07 05:19:07;;;;;;;10.20;3.05;;;13.90;99.90;;;;;;5035306;28;20048;-56
2021/01/07 05:21:35;;;;;;;12.82;4.35;;;14.00;99.90;;;;;;5027762;28;20487;-54
2021/01/07 05:24:03;;;;;;;8.68;3.88;;;13.90;99.90;;;;;;5035324;28;20041;-56
2021/01/07 05:26:31;;;;;;;11.30;4.10;;;13.90;99.90;;;;;;5035309;28;20045;-56
2021/01/07 05:28:59;;;;;;;14.63;3.63;;;14.00;99.90;;;;;;5035063;28;20049;-57
2021/01/07 05:31:27;;;;;;;12.00;3.17;;;13.90;99.90;;;;;;5035620;28;20136;-57
2021/01/07 05:33:55;;;;;;;6.95;3.33;;;14.00;99.90;;;;;;5035454;28;20404;-54
2021/01/07 05:36:30;;;;;;;9.43;3.78;;;14.00;99.90;;;;;;5033917;28;20080;-55
2021/01/07 05:39:05;;;;;;;14.45;2.97;;;14.00;99.90;;;;;;5035003;28;20140;-55
2021/01/07 05:41:33;;;;;;;12.27;3.13;;;14.00;99.90;;;;;;5018036;28;20068;-57
2021/01/07 05:44:05;;;;;;;8.25;3.08;;;14.00;99.90;;;;;;5030131;28;20455;-55
2021/01/07 05:46:34;;;;;;;11.52;3.95;;;14.00;99.90;;;;;;5018206;28;20056;-55
2021/01/07 05:49:02;;;;;;;11.50;3.40;;;14.00;99.90;;;;;;5029728;28;20408;-56
2021/01/07 05:51:31;;;;;;;9.10;3.10;;;14.00;99.90;;;;;;5024334;28;20058;-56
2021/01/07 05:53:59;;;;;;;11.55;4.35;;;14.00;99.90;;;;;;5019107;28;20056;-55
2021/01/07 05:56:27;;;;;;;23.67;3.92;;;13.90;99.90;;;;;;5025998;28;20136;-56
2021/01/07 05:58:55;;;;;;;9.15;3.38;;;13.90;99.90;;;;;;5030653;28;20053;-55
2021/01/07 06:01:23;;;;;;;7.68;3.38;;;13.80;99.90;;;;;;5023862;28;20073;-54
2021/01/07 06:03:52;;;;;;;12.23;3.75;;;13.80;99.90;;;;;;5001069;28;20080;-56
2021/01/07 06:06:23;;;;;;;8.50;3.70;;;13.70;99.90;;;;;;5008386;28;20041;-56
2021/01/07 06:08:53;;;;;;;12.25;4.05;;;13.70;99.90;;;;;;5030798;28;20045;-56
2021/01/07 06:11:23;;;;;;;5.53;2.85;;;13.70;99.90;;;;;;5023719;28;20057;-55
2021/01/07 06:13:53;;;;;;;14.63;3.45;;;13.60;99.90;;;;;;5000323;28;20076;-55
2021/01/07 06:16:22;;;;;;;8.18;2.58;;;13.60;99.90;;;;;;5025905;28;20053;-56
2021/01/07 06:18:50;;;;;;;6.25;3.00;;;13.60;99.90;;;;;;5030890;28;20511;-56
2021/01/07 06:21:17;;;;;;;7.18;2.97;;;13.60;99.90;;;;;;5023717;28;20065;-53
2021/01/07 06:23:46;;;;;;;5.35;2.97;;;13.60;99.90;;;;;;5016976;28;20511;-57
2021/01/07 06:26:27;;;;;;;8.85;3.90;;;13.60;99.90;;;;;;5025802;28;20456;-55
2021/01/07 06:28:59;;;;;;;8.32;2.92;;;13.50;99.90;;;;;;5012432;28;20072;-56
2021/01/07 06:31:34;;;;;;;6.88;2.80;;;13.60;99.90;;;;;;5006321;28;20500;-54
2021/01/07 06:34:03;;;;;;;8.88;3.15;;;13.60;99.90;;;;;;5019173;28;20049;-56
2021/01/07 06:36:38;;;;;;;6.28;2.97;;;13.60;99.90;;;;;;5025310;28;20458;-55
2021/01/07 06:39:07;;;;;;;6.18;3.70;;;13.60;99.90;;;;;;5031421;28;20470;-56
2021/01/07 06:41:34;;;;;;;7.28;3.95;;;13.60;99.90;;;;;;5025935;28;20498;-57
2021/01/07 06:44:06;;;;;;;4.75;3.40;;;13.60;99.90;;;;;;5033754;28;20095;-56
2021/01/07 06:46:39;;;;;;;6.03;3.25;;;13.60;99.90;;;;;;5025761;28;20799;-57
2021/01/07 06:49:23;;;;;;;7.97;3.58;;;13.60;99.90;;;;;;5033523;28;20048;-57
2021/01/07 06:52:06;;;;;;;8.57;3.75;;;13.60;99.90;;;;;;5034302;28;20220;-57
2021/01/07 06:54:38;;;;;;;7.20;3.17;;;13.60;99.90;;;;;;5033217;28;20045;-56
2021/01/07 06:57:17;;;;;;;9.07;3.95;;;13.60;99.90;;;;;;5032754;28;20120;-56
2021/01/07 07:00:00;;;;;;;11.43;4.13;;;13.60;99.90;;;;;;5033392;28;20056;-57
2021/01/07 07:02:28;;;;;;;7.03;4.10;;;13.60;99.90;;;;;;5033792;28;20133;-56
2021/01/07 07:04:59;;;;;;;8.15;3.67;;;13.60;99.90;;;;;;5032776;28;20045;-56
2021/01/07 07:07:39;;;;;;;8.77;3.35;;;13.70;99.90;;;;;;5032748;28;20077;-55
2021/01/07 07:10:18;;;;;;;6.68;4.60;;;13.60;99.90;;;;;;5032233;28;20479;-51
2021/01/07 07:12:50;;;;;;;5.70;3.60;;;13.70;99.90;;;;;;5014483;28;20385;-56
2021/01/07 07:15:23;;;;;;;9.10;5.03;;;13.70;99.90;;;;;;5031951;28;20487;-57
2021/01/07 07:17:53;;;;;;;6.13;3.83;;;13.70;99.90;;;;;;5033902;28;20446;-56
2021/01/07 07:20:26;;;;;;;7.15;4.53;;;13.70;99.90;;;;;;5032578;28;20380;-56
2021/01/07 07:22:54;;;;;;;6.22;3.85;;;13.80;99.90;;;;;;5033643;28;20058;-56
2021/01/07 07:25:26;;;;;;;7.50;3.70;;;13.80;99.90;;;;;;5033036;28;20069;-56
2021/01/07 07:28:04;;;;;;;7.00;3.40;;;13.80;99.90;;;;;;5033681;28;20049;-54
2021/01/07 07:30:34;;;;;;;7.78;3.28;;;13.80;99.90;;;;;;5031763;28;20072;-53
2021/01/07 07:33:03;;;;;;;4.70;2.55;;;13.80;99.90;;;;;;5033726;28;20058;-55
2021/01/07 07:35:34;;;;;;;7.25;3.00;;;13.80;99.90;;;;;;5032907;28;20060;-53
2021/01/07 07:38:01;;;;;;;4.68;2.78;;;13.80;99.90;;;;;;5033818;28;20060;-55
2021/01/07 07:40:35;;;;;;;11.20;3.08;;;13.80;99.90;;;;;;5032890;28;20058;-55
2021/01/07 07:43:03;;;;;;;4.45;2.35;;;13.80;99.90;;;;;;5032252;28;20049;-56
2021/01/07 07:45:33;;;;;;;4.88;3.20;;;13.80;99.90;;;;;;5033092;28;20509;-55
2021/01/07 07:48:01;;;;;;;4.90;2.38;;;13.80;99.90;;;;;;5033248;28;20049;-56
2021/01/07 07:50:31;;;;;;;9.73;3.75;;;13.80;99.90;;;;;;5033046;28;20132;-53
2021/01/07 07:53:10;;;;;;;4.05;3.30;;;13.90;99.90;;;;;;5033320;28;20049;-52
2021/01/07 07:55:38;;;;;;;6.40;2.53;;;13.90;99.90;;;;;;5032088;28;20041;-57
2021/01/07 07:58:09;;;;;;;6.10;3.15;;;13.90;99.90;;;;;;5032698;28;20099;-55
2021/01/07 08:00:37;;;;;;;5.05;2.58;;;14.00;99.90;;;;;;5032301;28;20058;-56
2021/01/07 08:03:08;;;;;;;5.15;2.30;;;14.00;99.90;;;;;;5031421;28;20057;-56
2021/01/07 08:05:37;;;;;;;4.95;2.75;;;14.10;99.90;;;;;;5032832;28;20055;-56
2021/01/07 08:08:05;;;;;;;8.00;4.70;;;14.20;99.90;;;;;;5032751;28;20049;-57
2021/01/07 08:10:32;;;;;;;16.42;7.32;;;14.30;99.90;;;;;;5031992;28;20137;-56
2021/01/07 08:13:01;;;;;;;10.70;6.07;;;14.30;99.90;;;;;;5032940;28;20077;-56
2021/01/07 08:15:30;;;;;;;6.10;3.40;;;14.40;99.90;;;;;;5032814;28;20487;-57
2021/01/07 08:18:24;;;;;;;7.72;3.22;;;14.50;99.90;;;;;;5035081;28;20045;-55
2021/01/07 08:20:54;;;;;;;4.72;2.28;;;14.60;99.90;;;;;;5029667;28;20077;-55
2021/01/07 08:23:25;;;;;;;7.50;2.13;;;14.70;99.90;;;;;;5036226;28;20053;-56
2021/01/07 08:25:53;;;;;;;8.43;2.65;;;14.80;99.90;;;;;;5035763;28;20057;-55
2021/01/07 08:28:27;;;;;;;4.88;2.00;;;14.90;99.90;;;;;;5036221;28;20394;-56
2021/01/07 08:31:01;;;;;;;3.33;1.77;;;14.90;99.90;;;;;;5035525;28;20383;-54
2021/01/07 08:33:30;;;;;;;6.35;1.65;;;14.90;99.90;;;;;;5036293;28;20046;-54
2021/01/07 08:36:03;;;;;;;3.65;1.75;;;14.90;99.90;;;;;;5036452;28;20506;-57
2021/01/07 08:38:32;;;;;;;3.92;1.83;;;14.90;99.90;;;;;;5034968;28;20060;-55
2021/01/07 08:41:12;;;;;;;5.25;2.40;;;14.90;99.90;;;;;;5031115;28;20053;-53
2021/01/07 08:43:40;;;;;;;;;;;14.90;99.90;;;;;;5035774;28;20045;-57
2021/01/07 08:46:12;;;;;;;2.92;1.80;;;14.80;99.90;;;;;;5035779;28;20346;-57
2021/01/07 08:48:40;;;;;;;4.38;2.53;;;14.90;99.90;;;;;;5035885;28;20053;-56
2021/01/07 08:51:16;;;;;;;7.65;3.25;;;15.00;99.90;;;;;;5036392;28;20046;-55
2021/01/07 08:53:52;;;;;;;5.28;2.88;;;14.90;99.90;;;;;;5035786;28;20065;-57
2021/01/07 08:56:36;;;;;;;9.63;3.95;;;15.00;99.90;;;;;;5035893;28;20499;-56
2021/01/07 08:59:31;;;;;;;5.67;2.80;;;15.00;99.90;;;;;;5035836;28;20383;-55
2021/01/07 09:02:07;;;;;;;6.13;2.15;;;15.10;99.90;;;;;;5030891;28;20303;-58
2021/01/07 09:04:45;;;;;;;4.90;2.03;;;15.10;99.90;;;;;;5035569;28;20054;-57
2021/01/07 09:07:16;;;;;;;5.22;2.35;;;15.10;99.90;;;;;;5036467;28;20438;-56
2021/01/07 09:09:48;;;;;;;6.95;2.72;;;15.10;99.90;;;;;;5034265;28;20056;-57
2021/01/07 09:12:20;;;;;;;4.05;2.03;;;15.20;99.90;;;;;;5036012;28;20100;-55
2021/01/07 09:14:55;;;;;;;6.57;2.40;;;15.20;99.90;;;;;;5035501;28;20060;-56
2021/01/07 09:17:38;;;;;;;3.05;1.52;;;15.20;99.90;;;;;;5035894;28;20060;-55
2021/01/07 09:20:26;;;;;;;5.00;1.75;;;15.20;99.90;;;;;;5035164;28;20053;-56
2021/01/07 09:23:07;;;;;;;5.68;1.83;;;15.10;99.90;;;;;;5016252;28;20133;-56
2021/01/07 09:25:37;;;;;;;3.17;1.67;;;15.10;99.90;;;;;;5033648;28;20057;-56
2021/01/07 09:28:05;;;;;;;5.22;1.95;;;15.10;99.90;;;;;;5033886;28;20073;-57
2021/01/07 09:30:33;;;;;;;3.65;1.65;;;15.00;99.90;;;;;;5034567;28;20050;-56
2021/01/07 09:33:01;;;;;;;2.22;1.35;;;15.00;99.90;;;;;;5035863;28;20053;-56
2021/01/07 09:35:31;;;;;;;4.45;1.55;;;15.00;99.90;;;;;;5035273;28;20121;-54
2021/01/07 09:38:00;;;;;;;6.57;1.88;;;15.00;99.90;;;;;;5035639;28;20100;-56
2021/01/07 09:40:28;;;;;;;3.95;1.25;;;15.00;99.90;;;;;;5033229;28;20050;-56
2021/01/07 09:42:56;;;;;;;3.20;1.50;;;14.90;99.90;;;;;;5035374;28;20045;-56
2021/01/07 09:45:26;;;;;;;6.60;1.50;;;14.90;99.90;;;;;;5034760;28;20525;-56
2021/01/07 09:47:54;;;;;;;4.88;1.40;;;14.80;99.90;;;;;;5035287;28;20054;-57
2021/01/07 09:50:22;;;;;;;2.92;1.88;;;14.80;99.90;;;;;;5034473;28;20054;-52
2021/01/07 09:52:49;;;;;;;4.90;2.03;;;14.80;99.90;;;;;;5035737;28;20381;-56
2021/01/07 09:55:16;;;;;;;6.03;2.13;;;14.80;99.90;;;;;;5034595;28;20506;-54
2021/01/07 09:57:48;;;;;;;7.18;3.17;;;14.80;99.90;;;;;;5033873;28;20053;-55
2021/01/07 10:00:16;;;;;;;4.53;2.15;;;14.80;99.90;;;;;;5034304;28;20049;-53
2021/01/07 10:02:44;;;;;;;3.90;2.13;;;14.80;99.90;;;;;;5035059;28;20053;-55
2021/01/07 10:05:12;;;;;;;4.78;1.83;;;14.80;99.90;;;;;;5034580;28;20050;-57
2021/01/07 10:07:40;;;;;;;3.67;1.58;;;14.70;99.90;;;;;;5035181;28;20064;-53
2021/01/07 10:10:09;;;;;;;8.38;1.73;;;14.70;99.90;;;;;;5034440;28;20041;-55
2021/01/07 10:12:39;;;;;;;6.32;1.58;;;14.60;99.90;;;;;;5015363;28;20112;-54
2021/01/07 10:15:08;;;;;;;5.50;2.33;;;14.60;99.90;;;;;;5030115;28;20049;-54
2021/01/07 10:17:35;;;;;;;4.57;2.50;;;14.70;99.90;;;;;;5034879;28;20057;-55
2021/01/07 10:20:06;;;;;;;4.70;2.38;;;14.70;99.90;;;;;;5034392;28;20041;-56
2021/01/07 10:22:37;;;;;;;5.05;2.22;;;14.80;99.90;;;;;;5034301;28;20408;-56
2021/01/07 10:25:06;;;;;;;6.10;3.22;;;14.80;99.90;;;;;;5034019;28;20049;-60
2021/01/07 10:27:34;;;;;;;3.80;1.75;;;14.80;99.90;;;;;;5034763;28;20060;-56
2021/01/07 10:30:04;;;;;;;4.10;2.13;;;14.70;99.90;;;;;;5033909;28;20050;-56
2021/01/07 10:32:33;;;;;;;3.83;2.30;;;14.70;99.90;;;;;;5034667;28;20095;-56
2021/01/07 10:35:02;;;;;;;5.10;1.95;;;14.70;99.90;;;;;;5033803;28;20450;-56
2021/01/07 10:37:33;;;;;;;3.88;1.83;;;14.70;99.90;;;;;;5034338;28;20144;-55
2021/01/07 10:40:03;;;;;;;6.35;2.78;;;14.70;99.90;;;;;;5033048;28;20163;-56
2021/01/07 10:42:34;;;;;;;7.38;3.22;;;14.60;99.90;;;;;;5034177;28;20501;-56
2021/01/07 10:45:02;;;;;;;6.93;2.88;;;14.60;99.90;;;;;;5031987;28;20049;-57
2021/01/07 10:47:34;;;;;;;5.32;2.40;;;14.60;99.90;;;;;;5033248;28;20069;-54
2021/01/07 10:50:04;;;;;;;7.00;2.42;;;14.60;99.90;;;;;;5033805;28;20057;-55
2021/01/07 10:52:47;;;;;;;5.72;2.10;;;14.60;99.90;;;;;;5033587;28;20458;-56
2021/01/07 10:55:26;;;;;;;4.68;2.97;;;14.50;99.90;;;;;;5033287;28;20436;-55
2021/01/07 10:58:05;;;;;;;4.30;3.28;;;14.60;99.90;;;;;;5033970;28;20053;-56
2021/01/07 11:01:00;;;;;;;7.85;3.33;;;14.70;99.90;;;;;;5031979;28;20057;-57
2021/01/07 11:03:39;;;;;;;5.55;2.80;;;14.70;99.90;;;;;;5033210;28;20095;-57
2021/01/07 11:06:17;;;;;;;7.72;3.25;;;14.80;99.90;;;;;;5045531;28;20076;-58
2021/01/07 11:08:59;;;;;;;6.32;3.33;;;14.80;99.90;;;;;;5033361;28;20053;-56
2021/01/07 11:11:49;;;;;;;12.40;6.45;;;14.80;99.90;;;;;;5033228;28;20057;-57
2021/01/07 11:14:37;;;;;;;10.17;6.33;;;14.80;99.90;;;;;;5033453;28;20092;-56
2021/01/07 11:17:16;;;;;;;4.93;2.10;;;14.70;99.90;;;;;;5033476;28;20052;-55
2021/01/07 11:19:50;;;;;;;6.65;3.60;;;14.80;99.90;;;;;;5032777;28;20049;-56
2021/01/07 11:22:29;;;;;;;9.57;5.10;;;14.80;99.90;;;;;;5033017;28;20061;-57
2021/01/07 11:25:02;;;;;;;10.25;3.10;;;14.80;99.90;;;;;;5032972;28;20053;-57
2021/01/07 11:27:31;;;;;;;4.10;3.55;;;14.80;99.90;;;;;;5033102;28;20131;-56
2021/01/07 11:30:03;;;;;;;6.22;5.35;;;14.80;99.90;;;;;;5032831;28;20060;-57
2021/01/07 11:32:37;;;;;;;11.52;7.93;;;14.80;99.90;;;;;;5033131;28;20049;-57
2021/01/07 11:35:09;;;;;;;9.52;7.60;;;14.80;99.90;;;;;;5032813;28;20053;-57
2021/01/07 11:37:42;;;;;;;13.45;7.63;;;14.80;99.90;;;;;;5013674;28;20447;-58
2021/01/07 11:40:35;;;;;;;8.50;5.10;;;14.80;99.90;;;;;;5021493;28;20061;-57
2021/01/07 11:43:29;;;;;;;16.10;6.53;;;14.80;99.90;;;;;;4969313;28;20046;-57
2021/01/07 11:46:01;;;;;;;9.95;5.70;;;14.80;99.90;;;;;;5023860;28;20541;-57
2021/01/07 11:48:33;;;;;;;8.50;5.45;;;14.80;99.90;;;;;;5030689;28;20091;-57
2021/01/07 11:51:13;;;;;;;7.78;3.47;;;14.90;99.90;;;;;;5017754;28;20081;-56
2021/01/07 11:53:41;;;;;;;7.45;2.38;;;14.90;99.90;;;;;;5014982;28;20100;-58
2021/01/07 11:56:17;;;;;;;6.53;2.70;;;14.90;99.90;;;;;;5006298;28;20099;-55
2021/01/07 11:58:48;;;;;;;7.70;3.65;;;14.90;99.90;;;;;;5029598;28;20049;-57
2021/01/07 12:01:19;;;;;;;8.27;6.40;;;14.90;99.90;;;;;;5021951;28;20042;-56
2021/01/07 12:03:48;;;;;;;4.75;3.97;;;14.90;99.90;;;;;;5015883;28;20057;-56
2021/01/07 12:06:26;;;;;;;6.13;3.42;;;14.90;99.90;;;;;;5006943;28;20407;-57
2021/01/07 12:09:09;;;;;;;8.40;4.55;;;14.80;99.90;;;;;;5028284;28;20365;-56
2021/01/07 12:11:37;;;;;;;6.00;2.30;;;14.80;99.90;;;;;;5016676;28;20056;-57
2021/01/07 12:14:19;;;;;;;8.60;4.20;;;14.80;99.90;;;;;;5026316;28;20054;-55
2021/01/07 12:16:52;;;;;;;12.13;4.32;;;14.80;99.90;;;;;;5002805;28;20556;-57
2021/01/07 12:19:34;;;;;;;5.60;3.30;;;14.90;99.90;;;;;;4986036;28;20160;-57
2021/01/07 12:22:06;;;;;;;13.57;4.53;;;15.00;99.90;;;;;;5010345;28;20514;-56
2021/01/07 12:24:35;;;;;;;7.78;3.42;;;14.80;99.90;;;;;;5026042;28;20465;-57
2021/01/07 12:27:05;;;;;;;5.82;2.15;;;14.90;99.90;;;;;;5017239;28;20450;-55
2021/01/07 12:29:37;;;;;;;11.23;2.70;;;14.90;99.90;;;;;;5018309;28;20069;-55
2021/01/07 12:32:29;;;;;;;5.38;2.65;;;14.90;99.90;;;;;;5028504;28;20140;-57
2021/01/07 12:35:13;;;;;;;6.80;3.40;;;15.00;99.90;;;;;;5026196;28;20054;-57
2021/01/07 12:38:07;;;;;;;9.45;2.95;;;15.10;99.90;;;;;;4976266;28;20039;-53
2021/01/07 12:40:38;;;;;;;6.10;2.67;;;15.10;99.90;;;;;;5013872;28;20059;-56
2021/01/07 12:43:07;;;;;;;9.45;3.05;;;15.10;99.90;;;;;;5032489;28;20504;-58
2021/01/07 12:45:37;;;;;;;17.73;4.53;;;15.00;99.90;;;;;;5032286;28;20073;-54
2021/01/07 12:48:04;;;;;;;5.15;2.25;;;15.00;99.90;;;;;;5031393;28;20049;-57
2021/01/07 12:50:32;;;;;;;6.18;2.58;;;15.00;99.90;;;;;;5030846;28;20057;-56
2021/01/07 12:53:00;;;;;;;6.25;2.33;;;14.90;99.90;;;;;;5031307;28;20056;-55
2021/01/07 12:55:28;;;;;;;11.70;4.13;;;14.90;99.90;;;;;;5031950;28;20384;-56
2021/01/07 12:57:55;;;;;;;10.45;5.70;;;15.00;99.90;;;;;;5032203;28;20057;-53
2021/01/07 13:00:34;;;;;;;8.52;4.82;;;15.00;99.90;;;;;;5031616;28;20075;-55
2021/01/07 13:03:27;;;;;;;3.65;2.10;;;15.00;99.90;;;;;;5032830;28;20042;-54